Time;durP1;ratioP1;P1;durP2;ratioP2;P2;SDS_P1;SDS_P2;PMS_P1;PMS_P2;Temp;Humidity;BMP_temperature;BMP_pressure;BME280_temperature;BME280_humidity;BME280_pressure;Samples;Min_cycle;Max_cycle;Signal;HPM_P1;HPM_P2
2022/12/26 00:01:00;;;;;;;;;;;;;;;6.38;100.00;100820.66;5075625;28;19927;-77
2022/12/26 00:03:26;;;;;;;;;;;;;;;6.39;100.00;100822.38;5068924;28;20405;-77
2022/12/26 00:05:51;;;;;;;;;;;;;;;6.40;100.00;100818.84;5086822;28;19927;-77
2022/12/26 00:08:17;;;;;;;;;;;;;;;6.41;100.00;100819.69;5087872;28;19932;-76
2022/12/26 00:10:42;;;;;;;;;;;;;;;6.40;100.00;100821.47;5068761;28;19928;-76
2022/12/26 00:13:08;;;;;;;;;;;;;;;6.40;100.00;100824.09;5084727;28;19951;-77
2022/12/26 00:15:33;;;;;;;;;;;;;;;6.39;100.00;100817.97;5068063;28;19978;-77
2022/12/26 00:17:59;;;;;;;;;;;;;;;6.42;100.00;100829.31;5086177;27;20302;-77
2022/12/26 00:20:24;;;;;;;;;;;;;;;6.41;100.00;100819.69;5086508;28;19971;-77
2022/12/26 00:22:49;;;;;;;;;;;;;;;6.41;100.00;100817.91;5087103;28;19936;-77
2022/12/26 00:25:15;;;;;;;;;;;;;;;6.42;100.00;100817.00;5067365;28;20464;-77
2022/12/26 00:27:40;;;;;;;;;;;;;;;6.43;100.00;100816.09;5085850;28;19928;-77
2022/12/26 00:30:06;;;;;;;;;;;;;;;6.44;100.00;100819.59;5087023;28;19931;-77
2022/12/26 00:32:31;;;;;;;;;;;;;;;6.43;100.00;100823.16;5067292;28;19954;-77
2022/12/26 00:34:57;;;;;;;;;;;;;;;6.43;100.00;100824.00;5052028;28;20275;-78
2022/12/26 00:37:22;;;;;;;;;;;;;;;6.44;100.00;100835.38;5068159;28;19928;-78
2022/12/26 00:39:47;;;;;;;;;;;;;;;6.44;100.00;100830.13;5086771;28;19955;-77
2022/12/26 00:42:13;;;;;;;;;;;;;;;6.45;100.00;100826.59;5054136;28;19950;-78
2022/12/26 00:44:38;;;;;;;;;;;;;;;6.47;100.00;100817.75;5086164;28;20019;-77
2022/12/26 00:47:04;;;;;;;;;;;;;;;6.49;100.00;100807.19;5086397;28;19932;-78
2022/12/26 00:49:29;;;;;;;;;;;;;;;6.49;100.00;100809.81;5085500;28;19932;-78
2022/12/26 00:51:54;;;;;;;;;;;;;;;6.50;100.00;100803.66;5085347;28;19927;-78
2022/12/26 00:54:20;;;;;;;;;;;;;;;6.50;100.00;100799.22;5085458;28;19990;-77
2022/12/26 00:56:45;;;;;;;;;;;;;;;6.51;100.00;100806.25;5068146;28;19924;-77
2022/12/26 00:59:11;;;;;;;;;;;;;;;6.53;100.00;100819.34;5085521;28;20023;-77
2022/12/26 01:01:36;;;;;;;;;;;;;;;6.55;100.00;100817.53;5085276;28;19924;-78
2022/12/26 01:04:01;;;;;;;;;;;;;;;6.57;100.00;100822.72;5086184;28;20516;-77
2022/12/26 01:06:26;;;;;;;;;;;;;;;6.58;100.00;100825.31;5086179;28;19931;-77
2022/12/26 01:08:52;;;;;;;;;;;;;;;6.59;100.00;100824.41;5085998;28;19932;-77
2022/12/26 01:14:02;;;;;;;;;;;;;;;6.62;100.00;100837.50;5085663;28;20412;-77
2022/12/26 01:16:27;;;;;;;;;;;;;;;6.63;100.00;100831.31;5085898;28;20034;-78
2022/12/26 01:18:53;;;;;;;;;;;;;;;6.65;100.00;100818.97;5086439;28;19927;-77
2022/12/26 01:21:18;;;;;;;;;;;;;;;6.66;100.00;100825.97;5058543;28;20019;-77
2022/12/26 01:23:43;;;;;;;;;;;;;;;6.68;100.00;100828.56;5084780;28;19985;-77
2022/12/26 01:26:09;;;;;;;;;;;;;;;6.70;100.00;100826.72;5085802;28;19938;-78
2022/12/26 01:28:34;;;;;;;;;;;;;;;6.72;100.00;100826.69;5066971;28;19931;-78
2022/12/26 01:31:00;;;;;;;;;;;;;;;6.74;100.00;100827.50;5066397;28;19958;-78
2022/12/26 01:33:26;;;;;;;;;;;;;;;6.74;100.00;100831.00;5066699;28;19975;-78
2022/12/26 01:35:52;;;;;;;;;;;;;;;6.78;100.00;100829.16;5084703;28;19979;-78
2022/12/26 01:38:17;;;;;;;;;;;;;;;6.78;100.00;100827.38;5067948;28;19924;-79
2022/12/26 01:40:42;;;;;;;;;;;;;;;6.78;100.00;100830.03;5084712;28;20014;-78
2022/12/26 01:43:10;;;;;;;;;;;;;;;6.81;100.00;100826.41;5085770;28;19934;-79
2022/12/26 01:45:36;;;;;;;;;;;;;;;6.82;100.00;100836.06;5066986;28;20491;-79
2022/12/26 01:48:03;;;;;;;;;;;;;;;6.83;100.00;100823.75;5067001;28;19932;-79
2022/12/26 01:50:34;;;;;;;;;;;;;;;6.84;100.00;100822.81;5065871;28;19985;-79
2022/12/26 01:53:02;;;;;;;;;;;;;;;6.87;100.00;100830.66;5084072;28;20414;-79
2022/12/26 01:55:27;;;;;;;;;;;;;;;6.87;100.00;100839.38;5052318;28;19924;-78
2022/12/26 01:57:54;;;;;;;;;;;;;;;6.89;100.00;100834.09;5085445;28;19934;-78
2022/12/26 02:00:20;;;;;;;;;;;;;;;6.90;100.00;100827.91;5067059;28;19930;-79
2022/12/26 02:05:35;;;;;;;;;;;;;;;6.89;100.00;100827.06;5084276;28;19943;-79
2022/12/26 02:08:20;;;;;;;;;;;;;;;6.88;100.00;100830.59;5067843;28;19928;-79
2022/12/26 02:10:49;;;;;;;;;;;;;;;6.87;100.00;100817.50;5084372;28;19931;-79
2022/12/26 02:13:14;;;;;;;;;;;;;;;6.86;100.00;100821.88;5084645;28;20478;-78
2022/12/26 02:15:40;;;;;;;;;;;;;;;6.84;100.00;100836.88;5054552;28;20011;-78
2022/12/26 02:18:05;;;;;;;;;;;;;;;6.82;100.00;100825.53;5065791;28;19967;-79
2022/12/26 02:20:33;;;;;;;;;;;;;;;6.80;100.00;100816.78;5066564;28;20322;-79
2022/12/26 02:23:10;;;;;;;;;;;;;;;6.78;100.00;100826.50;5049690;28;19924;-78
2022/12/26 02:25:35;;;;;;;;;;;;;;;6.74;100.00;100825.75;5066035;28;19931;-78
2022/12/26 02:28:07;;;;;;;;;;;;;;;6.72;100.00;100821.44;5084781;28;20335;-78
2022/12/26 02:30:34;;;;;;;;;;;;;;;6.71;100.00;100822.34;5083428;28;19949;-78
2022/12/26 02:33:15;;;;;;;;;;;;;;;6.71;100.00;100817.09;5066520;28;20012;-77
2022/12/26 02:35:59;;;;;;;;;;;;;;;6.69;100.00;100816.28;5065174;28;20500;-77
2022/12/26 02:38:30;;;;;;;;;;;;;;;6.66;100.00;100807.53;5065087;28;19924;-77
2022/12/26 02:41:00;;;;;;;;;;;;;;;6.65;100.00;100802.34;5084736;28;19924;-77
2022/12/26 02:43:31;;;;;;;;;;;;;;;6.63;100.00;100815.53;5065399;28;19928;-77
2022/12/26 02:49:00;;;;;;;;;;;;;;;6.59;100.00;100792.84;5068170;28;21125;-77
2022/12/26 03:14:15;;;;;;;;;;;;;;;6.49;100.00;100765.94;5069141;28;19927;-78
2022/12/26 03:19:25;;;;;;;;;;;;;;;6.48;100.00;100768.66;5053712;28;19981;-77
2022/12/26 03:21:50;;;;;;;;;;;;;;;6.49;100.00;100773.00;5066159;28;20348;-78
2022/12/26 03:24:16;;;;;;;;;;;;;;;6.48;100.00;100766.03;5064485;28;19950;-77
2022/12/26 03:26:46;;;;;;;;;;;;;;;6.48;100.00;100777.38;5066006;28;20409;-77
2022/12/26 03:32:02;;;;;;;;;;;;;;;6.47;100.00;100761.63;5031170;28;20494;-77
2022/12/26 03:34:28;;;;;;;;;;;;;;;6.49;100.00;100765.09;5048990;28;20400;-77
2022/12/26 03:36:56;;;;;;;;;;;;;;;6.49;100.00;100773.00;5084166;28;19928;-78
2022/12/26 04:46:30;;;;;;;;;;;;;;;6.50;100.00;100783.44;5068603;28;19963;-78
2022/12/26 04:51:40;;;;;;;;;;;;;;;6.49;100.00;100776.47;5071249;28;19924;-78
2022/12/26 04:54:05;;;;;;;;;;;;;;;6.48;100.00;100779.19;5068020;28;20283;-77
2022/12/26 04:56:31;;;;;;;;;;;;;;;6.46;100.00;100775.69;5056047;28;19928;-76
2022/12/26 04:58:56;;;;;;;;;;;;;;;6.40;100.00;100760.97;5086460;28;19928;-77
2022/12/26 05:09:34;;;;;;;;;;;;;;;6.26;100.00;100764.00;5085428;28;20559;-77
2022/12/26 05:12:03;;;;;;;;;;;;;;;6.25;100.00;100768.41;5086058;28;19932;-77
2022/12/26 05:14:30;;;;;;;;;;;;;;;6.27;100.00;100775.38;5067189;28;19928;-77
2022/12/26 05:30:53;;;;;;;;;;;;;;;6.39;100.00;100770.63;5071137;28;19930;-77
2022/12/26 05:36:03;;;;;;;;;;;;;;;6.45;100.00;100763.47;5084828;28;20081;-78
2022/12/26 05:38:28;;;;;;;;;;;;;;;6.49;100.00;100759.84;5086349;28;20335;-78
2022/12/26 05:40:53;;;;;;;;;;;;;;;6.51;100.00;100750.13;5085255;28;19938;-78
2022/12/26 05:43:19;;;;;;;;;;;;;;;6.54;100.00;100747.41;5066750;28;19967;-77
2022/12/26 05:45:44;;;;;;;;;;;;;;;6.57;100.00;100749.06;5086132;28;19932;-78
2022/12/26 05:48:09;;;;;;;;;;;;;;;6.59;100.00;100750.75;5067378;28;19924;-77
2022/12/26 05:50:35;;;;;;;;;;;;;;;6.63;100.00;100741.00;5086359;28;19971;-77
2022/12/26 05:53:00;;;;;;;;;;;;;;;6.65;100.00;100739.22;5055267;28;19939;-77
2022/12/26 05:55:26;;;;;;;;;;;;;;;6.68;100.00;100743.50;5084812;28;19932;-78
2022/12/26 05:57:51;;;;;;;;;;;;;;;6.69;100.00;100739.97;5066426;28;20025;-78
2022/12/26 06:00:16;;;;;;;;;;;;;;;6.68;100.00;100740.84;5067101;28;19928;-78
2022/12/26 06:02:41;;;;;;;;;;;;;;;6.65;100.00;100734.78;5085609;28;20410;-78
2022/12/26 06:05:07;;;;;;;;;;;;;;;6.64;100.00;100740.97;5085212;28;19986;-78
2022/12/26 06:07:32;;;;;;;;;;;;;;;6.62;100.00;100744.53;5049989;28;19932;-78
2022/12/26 06:09:58;;;;;;;;;;;;;;;6.60;100.00;100735.84;5066024;28;20371;-78
2022/12/26 06:12:23;;;;;;;;;;;;;;;6.58;100.00;100743.78;5084339;28;20304;-78
2022/12/26 06:14:48;;;;;;;;;;;;;;;6.56;100.00;100742.97;5084941;28;20518;-78
2022/12/26 06:17:14;;;;;;;;;;;;;;;6.51;100.00;100743.13;5085596;28;19928;-77
2022/12/26 06:19:39;;;;;;;;;;;;;;;6.49;100.00;100744.91;5067412;28;19935;-77
2022/12/26 06:22:04;;;;;;;;;;;;;;;6.46;100.00;100739.75;5066999;28;20317;-77
2022/12/26 06:24:30;;;;;;;;;;;;;;;6.42;100.00;100746.00;5065707;28;21766;-78
2022/12/26 06:26:55;;;;;;;;;;;;;;;6.37;100.00;100740.00;5084987;28;20318;-78
2022/12/26 06:29:20;;;;;;;;;;;;;;;6.34;100.00;100750.63;5085248;28;19931;-77
2022/12/26 06:31:45;;;;;;;;;;;;;;;6.29;100.00;100737.63;5085690;28;19924;-77
2022/12/26 06:34:11;;;;;;;;;;;;;;;6.24;100.00;100734.25;5084382;28;19932;-77
2022/12/26 06:36:37;;;;;;;;;;;;;;;6.18;100.00;100735.31;5066236;28;19971;-77
2022/12/26 06:39:02;;;;;;;;;;;;;;;6.13;100.00;100731.06;5066030;28;21436;-77
2022/12/26 06:41:27;;;;;;;;;;;;;;;6.08;100.00;100728.56;5084940;28;19924;-77
2022/12/26 06:43:53;;;;;;;;;;;;;;;6.05;100.00;100726.91;5084420;28;20491;-77
2022/12/26 06:46:19;;;;;;;;;;;;;;;6.03;100.00;100720.84;5066281;28;20044;-77
2022/12/26 06:48:44;;;;;;;;;;;;;;;6.02;100.00;100727.00;5066695;28;19973;-77
2022/12/26 06:51:10;;;;;;;;;;;;;;;5.99;100.00;100716.53;5084684;28;19936;-77
2022/12/26 06:53:36;;;;;;;;;;;;;;;5.95;100.00;100718.38;5066172;28;20386;-77
2022/12/26 06:56:08;;;;;;;;;;;;;;;5.95;100.00;100728.03;5064825;28;19928;-78
2022/12/26 06:58:34;;;;;;;;;;;;;;;5.93;100.00;100721.94;5083745;28;19932;-77
2022/12/26 07:01:03;;;;;;;;;;;;;;;5.91;100.00;100719.38;5066287;28;20013;-77
2022/12/26 07:03:28;;;;;;;;;;;;;;;5.90;100.00;100708.91;5066497;28;19931;-77
2022/12/26 07:05:54;;;;;;;;;;;;;;;5.90;100.00;100706.28;5083864;28;19936;-77
2022/12/26 07:08:20;;;;;;;;;;;;;;;5.89;100.00;100702.78;5065906;28;20406;-78
2022/12/26 07:10:45;;;;;;;;;;;;;;;5.87;100.00;100690.63;5084486;28;20481;-77
2022/12/26 07:13:10;;;;;;;;;;;;;;;5.85;100.00;100696.75;5083884;28;19977;-77
2022/12/26 07:15:36;;;;;;;;;;;;;;;5.85;100.00;100699.38;5083261;28;19935;-77
2022/12/26 07:18:01;;;;;;;;;;;;;;;5.84;100.00;100688.94;5083640;28;19928;-77
2022/12/26 07:20:26;;;;;;;;;;;;;;;5.84;100.00;100688.94;5084398;28;19928;-77
2022/12/26 07:22:52;;;;;;;;;;;;;;;5.83;100.00;100688.06;5083816;28;20386;-78
2022/12/26 07:25:18;;;;;;;;;;;;;;;5.84;100.00;100687.16;5065387;28;20088;-77
2022/12/26 07:27:43;;;;;;;;;;;;;;;5.85;100.00;100686.25;5083716;28;20394;-78
2022/12/26 07:30:09;;;;;;;;;;;;;;;5.86;100.00;100697.63;5083265;28;19939;-77
2022/12/26 07:32:34;;;;;;;;;;;;;;;5.86;100.00;100692.38;5084120;28;19932;-77
2022/12/26 07:34:59;;;;;;;;;;;;;;;5.89;100.00;100688.78;5065777;28;20036;-77
2022/12/26 07:37:25;;;;;;;;;;;;;;;5.93;100.00;100695.66;5084289;28;19932;-78
2022/12/26 07:39:50;;;;;;;;;;;;;;;5.95;100.00;100701.75;5083699;28;21992;-77
2022/12/26 07:42:15;;;;;;;;;;;;;;;5.95;100.00;100702.59;5083898;28;19977;-77
2022/12/26 07:44:41;;;;;;;;;;;;;;;5.99;100.00;100703.38;5083547;28;19924;-78
2022/12/26 07:47:07;;;;;;;;;;;;;;;6.01;100.00;100693.72;5065099;28;19928;-77
2022/12/26 07:49:32;;;;;;;;;;;;;;;6.03;100.00;100699.81;5083494;28;19932;-77
2022/12/26 07:51:57;;;;;;;;;;;;;;;6.06;100.00;100689.19;5083570;28;21437;-78
2022/12/26 07:54:23;;;;;;;;;;;;;;;6.10;100.00;100692.63;5082674;28;20398;-78
2022/12/26 07:56:48;;;;;;;;;;;;;;;6.10;100.00;100680.31;5084270;28;19947;-77
2022/12/26 07:59:14;;;;;;;;;;;;;;;6.13;100.00;100679.38;5087488;28;19925;-77
2022/12/26 08:01:39;;;;;;;;;;;;;;;6.14;100.00;100675.84;5087624;28;19928;-78
2022/12/26 08:04:05;;;;;;;;;;;;;;;6.17;100.00;100680.13;5069585;28;19943;-78
2022/12/26 08:06:30;;;;;;;;;;;;;;;6.17;100.00;100677.50;5087286;28;20315;-78
2022/12/26 08:08:55;;;;;;;;;;;;;;;6.18;100.00;100673.97;5086137;28;19974;-77
2022/12/26 08:11:21;;;;;;;;;;;;;;;6.17;100.00;100674.88;5068067;28;19928;-77
2022/12/26 08:13:47;;;;;;;;;;;;;;;6.16;100.00;100678.41;5068478;28;19935;-78
2022/12/26 08:16:13;;;;;;;;;;;;;;;6.15;100.00;100689.84;5069784;28;20763;-78
2022/12/26 08:18:38;;;;;;;;;;;;;;;6.14;100.00;100693.38;5087529;28;19950;-78
2022/12/26 08:21:04;;;;;;;;;;;;;;;6.14;100.00;100691.59;5068907;28;20305;-77
2022/12/26 08:23:29;;;;;;;;;;;;;;;6.15;100.00;100692.47;5068930;28;19929;-78
2022/12/26 08:25:54;;;;;;;;;;;;;;;6.18;100.00;100693.25;5086238;28;20180;-78
2022/12/26 08:28:20;;;;;;;;;;;;;;;6.20;100.00;100699.31;5067678;28;19932;-78
2022/12/26 08:30:45;;;;;;;;;;;;;;;6.24;100.00;100690.44;5087526;28;19936;-78
2022/12/26 08:33:11;;;;;;;;;;;;;;;6.29;100.00;100699.94;5068792;28;19932;-78
2022/12/26 08:35:37;;;;;;;;;;;;;;;6.33;100.00;100696.31;5087509;28;20238;-77
2022/12/26 08:38:02;;;;;;;;;;;;;;;6.35;100.00;100703.25;5067596;28;19970;-78
2022/12/26 08:40:27;;;;;;;;;;;;;;;6.37;100.00;100704.06;5086722;28;20402;-77
2022/12/26 08:42:53;;;;;;;;;;;;;;;6.36;100.00;100707.63;5068759;28;19966;-78
2022/12/26 08:45:18;;;;;;;;;;;;;;;6.35;100.00;100713.78;5087301;28;19931;-78
2022/12/26 08:47:43;;;;;;;;;;;;;;;6.36;100.00;100723.38;5086915;28;19932;-78
2022/12/26 08:50:09;;;;;;;;;;;;;;;6.37;100.00;100727.75;5086768;28;20446;-78
2022/12/26 08:52:34;;;;;;;;;;;;;;;6.38;100.00;100726.81;5086636;28;20659;-78
2022/12/26 08:55:00;;;;;;;;;;;;;;;6.40;100.00;100729.41;5086705;28;20402;-78
2022/12/26 08:57:25;;;;;;;;;;;;;;;6.41;100.00;100738.16;5087179;28;19936;-77
2022/12/26 08:59:50;;;;;;;;;;;;;;;6.42;100.00;100737.28;5055728;28;19928;-78
2022/12/26 09:02:16;;;;;;;;;;;;;;;6.44;100.00;100751.22;5069226;28;20546;-78
2022/12/26 09:04:41;;;;;;;;;;;;;;;6.51;100.00;100773.81;5067300;28;20567;-78
2022/12/26 09:07:07;;;;;;;;;;;;;;;6.57;100.00;100796.44;5086272;28;19978;-78
2022/12/26 09:09:32;;;;;;;;;;;;;;;6.56;100.00;100802.59;5066156;28;19972;-78
2022/12/26 09:11:58;;;;;;;;;;;;;;;6.52;100.00;100809.72;5067927;28;19932;-78
2022/12/26 09:14:23;;;;;;;;;;;;;;;6.46;100.00;100829.19;5086273;28;19967;-78
2022/12/26 09:16:49;;;;;;;;;;;;;;;6.24;100.00;100842.94;5086860;28;20044;-78
2022/12/26 09:19:17;;;;;;;;;;;;;;;6.07;100.00;100822.38;5086523;28;20043;-78
2022/12/26 09:21:43;;;;;;;;;;;;;;;5.94;100.00;100834.91;5068039;28;20069;-77
2022/12/26 09:24:12;;;;;;;;;;;;;;;5.78;100.00;100802.06;5067665;28;19984;-78
2022/12/26 09:26:37;;;;;;;;;;;;;;;5.65;100.00;100835.66;5067511;28;19980;-78
2022/12/26 09:29:03;;;;;;;;;;;;;;;5.57;100.00;100849.00;5084810;28;19931;-78
2022/12/26 09:31:29;;;;;;;;;;;;;;;5.46;100.00;100856.25;5085064;28;19993;-78
2022/12/26 09:33:54;;;;;;;;;;;;;;;5.37;100.00;100850.34;5066954;28;19934;-77
2022/12/26 09:36:21;;;;;;;;;;;;;;;5.30;100.00;100851.38;5085635;28;20368;-77
2022/12/26 09:38:46;;;;;;;;;;;;;;;5.24;100.00;100862.03;5084438;28;19920;-77
2022/12/26 09:41:30;;;;;;;;;;;;;;;5.19;100.00;100859.50;5084907;28;20298;-77
2022/12/26 09:43:59;;;;;;;;;;;;;;;5.15;100.00;100857.84;5085139;28;20014;-76
2022/12/26 09:46:28;;;;;;;;;;;;;;;5.14;100.00;100864.00;5066047;28;19932;-76
2022/12/26 09:49:13;;;;;;;;;;;;;;;5.13;100.00;100883.25;5084948;28;19980;-76
2022/12/26 09:51:39;;;;;;;;;;;;;;;5.11;100.00;100885.03;5084610;28;19977;-77
2022/12/26 09:54:05;;;;;;;;;;;;;;;5.15;100.00;100891.97;5085261;28;19981;-77
2022/12/26 09:56:30;;;;;;;;;;;;;;;5.17;100.00;100900.66;5055020;28;19927;-77
2022/12/26 09:58:57;;;;;;;;;;;;;;;5.21;100.00;100910.19;5066787;28;20050;-77
2022/12/26 10:01:26;;;;;;;;;;;;;;;5.29;100.00;100918.75;5085150;28;19981;-77
2022/12/26 10:03:53;;;;;;;;;;;;;;;5.35;100.00;100933.53;5085211;28;19923;-77
2022/12/26 10:06:18;;;;;;;;;;;;;;;5.39;100.00;100931.72;5067192;28;19924;-76
2022/12/26 10:09:02;;;;;;;;;;;;;;;5.41;100.00;100943.03;5084171;28;20298;-76
2022/12/26 10:11:31;;;;;;;;;;;;;;;5.42;100.00;100944.75;5071195;28;19928;-77
2022/12/26 10:14:19;;;;;;;;;;;;;;;5.41;100.00;100957.00;5084027;28;20065;-77
2022/12/26 10:16:44;;;;;;;;;;;;;;;5.36;100.00;100977.28;5072649;28;19935;-77
2022/12/26 10:19:15;;;;;;;;;;;;;;;5.29;100.00;100971.28;5085367;28;19924;-76
2022/12/26 10:21:46;;;;;;;;;;;;;;;5.23;100.00;100981.91;5066992;28;20535;-76
2022/12/26 10:24:12;;;;;;;;;;;;;;;5.17;100.00;100995.16;5085025;28;20029;-76
2022/12/26 10:26:39;;;;;;;;;;;;;;;5.14;100.00;100998.69;5084443;28;20396;-77
2022/12/26 10:29:09;;;;;;;;;;;;;;;5.12;100.00;101010.16;5065865;28;19959;-76
2022/12/26 10:31:50;;;;;;;;;;;;;;;5.09;100.00;101020.69;5084422;28;19955;-76
2022/12/26 10:34:15;;;;;;;;;;;;;;;5.10;100.00;101038.16;5084047;28;19920;-76
2022/12/26 10:36:44;;;;;;;;;;;;;;;5.07;100.00;101038.25;5083919;28;20386;-77
2022/12/26 10:39:12;;;;;;;;;;;;;;;5.05;100.00;101058.41;5084062;28;20333;-76
2022/12/26 10:41:40;;;;;;;;;;;;;;;5.05;100.00;101058.41;5066794;28;19949;-75
2022/12/26 10:44:07;;;;;;;;;;;;;;;5.03;100.00;101054.03;5065960;28;19924;-76
2022/12/26 10:46:39;;;;;;;;;;;;;;;5.03;100.00;101056.66;5065916;28;20290;-76
2022/12/26 10:49:12;;;;;;;;;;;;;;;5.02;100.00;101057.56;5064238;28;21418;-76
2022/12/26 10:51:38;;;;;;;;;;;;;;;5.03;100.00;101069.78;5065581;28;19923;-76
2022/12/26 10:54:07;;;;;;;;;;;;;;;5.04;100.00;101070.66;5084421;28;20470;-76
2022/12/26 10:56:33;;;;;;;;;;;;;;;5.05;100.00;101082.88;5066050;28;19942;-76
2022/12/26 10:59:02;;;;;;;;;;;;;;;5.06;100.00;101094.25;5084347;28;19927;-76
2022/12/26 11:01:29;;;;;;;;;;;;;;;5.05;100.00;101095.16;5054465;28;19927;-75
2022/12/26 11:03:56;;;;;;;;;;;;;;;5.05;100.00;101093.38;5065454;28;20019;-76
2022/12/26 11:06:22;;;;;;;;;;;;;;;5.06;100.00;101087.22;5055268;28;20655;-75
2022/12/26 11:08:51;;;;;;;;;;;;;;;5.07;100.00;101090.72;5066532;28;19934;-75
2022/12/26 11:11:16;;;;;;;;;;;;;;;5.07;100.00;101098.59;5054326;28;20454;-75
2022/12/26 11:13:45;;;;;;;;;;;;;;;5.05;100.00;101092.53;5066108;28;19924;-75
2022/12/26 11:16:11;;;;;;;;;;;;;;;5.07;100.00;101106.47;5066172;28;20471;-76
2022/12/26 11:18:37;;;;;;;;;;;;;;;5.07;100.00;101107.31;5053855;28;19932;-76
2022/12/26 11:21:18;;;;;;;;;;;;;;;5.08;100.00;101108.19;5065449;28;19927;-78
2022/12/26 11:23:44;;;;;;;;;;;;;;;5.08;100.00;101116.97;5083311;28;21854;-75
2022/12/26 11:26:29;;;;;;;;;;;;;;;5.08;100.00;101108.19;5048877;28;20042;-76
2022/12/26 11:29:05;;;;;;;;;;;;;;;5.08;100.00;101129.19;5082601;28;19924;-76
2022/12/26 11:31:31;;;;;;;;;;;;;;;5.08;100.00;101129.19;5065161;28;19928;-75
2022/12/26 11:33:57;;;;;;;;;;;;;;;5.08;100.00;101140.56;5057702;28;20455;-76
2022/12/26 11:36:23;;;;;;;;;;;;;;;5.10;100.00;101154.53;5069891;28;19924;-76
2022/12/26 11:38:48;;;;;;;;;;;;;;;5.12;100.00;101162.38;5057922;28;19935;-76
2022/12/26 11:41:35;;;;;;;;;;;;;;;5.11;100.00;101168.50;5087746;28;19985;-76
2022/12/26 11:44:03;;;;;;;;;;;;;;;5.05;100.00;101174.72;5088111;28;19923;-75
2022/12/26 11:46:36;;;;;;;;;;;;;;;5.00;100.00;101169.56;5087698;28;19923;-76
2022/12/26 11:49:01;;;;;;;;;;;;;;;4.94;100.00;101174.03;5088058;28;21518;-76
2022/12/26 11:51:34;;;;;;;;;;;;;;;4.92;100.00;101181.97;5070392;28;20013;-76
2022/12/26 11:54:16;;;;;;;;;;;;;;;4.88;100.00;101181.13;5068005;28;19981;-76
2022/12/26 11:56:42;;;;;;;;;;;;;;;4.87;100.00;101179.41;5069133;28;20471;-75
2022/12/26 11:59:15;;;;;;;;;;;;;;;4.87;100.00;101181.16;5068331;28;20135;-76
2022/12/26 12:01:40;;;;;;;;;;;;;;;4.87;100.00;101179.41;5087037;28;19928;-76
2022/12/26 12:04:06;;;;;;;;;;;;;;;4.90;100.00;101188.97;5086546;28;20397;-76
2022/12/26 12:06:31;;;;;;;;;;;;;;;4.93;100.00;101182.81;5069744;28;20300;-76
2022/12/26 12:09:00;;;;;;;;;;;;;;;4.95;100.00;101181.03;5087420;28;19977;-76
2022/12/26 12:11:28;;;;;;;;;;;;;;;4.94;100.00;101188.03;5052775;28;19928;-76
2022/12/26 12:13:57;;;;;;;;;;;;;;;4.93;100.00;101191.56;5087126;28;19924;-76
2022/12/26 12:16:25;;;;;;;;;;;;;;;4.89;100.00;101189.88;5087284;28;19992;-76
2022/12/26 12:19:06;;;;;;;;;;;;;;;4.85;100.00;101190.81;5068790;28;19928;-76
2022/12/26 12:21:38;;;;;;;;;;;;;;;4.77;100.00;101193.56;5085295;28;19924;-76
2022/12/26 12:24:26;;;;;;;;;;;;;;;4.71;100.00;101210.25;5068239;28;19931;-76
2022/12/26 12:27:04;;;;;;;;;;;;;;;4.65;100.00;101215.59;5054555;28;19932;-76
2022/12/26 12:29:35;;;;;;;;;;;;;;;4.62;100.00;101213.00;5087037;28;19935;-76
2022/12/26 12:32:12;;;;;;;;;;;;;;;4.58;100.00;101209.56;5086727;28;19932;-76
2022/12/26 12:34:44;;;;;;;;;;;;;;;4.55;100.00;101214.88;5068014;28;20446;-75
2022/12/26 12:37:15;;;;;;;;;;;;;;;4.54;100.00;101222.75;5086054;28;20060;-75
2022/12/26 12:39:50;;;;;;;;;;;;;;;4.53;100.00;101223.63;5086216;28;19928;-76
2022/12/26 12:42:34;;;;;;;;;;;;;;;4.54;100.00;101234.13;5086757;28;19928;-75
2022/12/26 12:45:03;;;;;;;;;;;;;;;4.52;100.00;101232.41;5087247;28;19923;-76
2022/12/26 12:47:37;;;;;;;;;;;;;;;4.51;100.00;101233.28;5087015;28;19932;-76
2022/12/26 12:50:15;;;;;;;;;;;;;;;4.49;100.00;101242.03;5086488;28;19952;-75
2022/12/26 12:52:41;;;;;;;;;;;;;;;4.49;100.00;101247.25;5086218;28;19977;-76
2022/12/26 12:55:09;;;;;;;;;;;;;;;4.49;100.00;101254.28;5086831;28;20055;-76
2022/12/26 12:57:53;;;;;;;;;;;;;;;4.51;100.00;101249.88;5073241;28;19928;-76
2022/12/26 13:00:22;;;;;;;;;;;;;;;4.53;100.00;101257.72;5086707;28;19928;-76
2022/12/26 13:02:48;;;;;;;;;;;;;;;4.56;100.00;101257.69;5069018;28;19931;-76
2022/12/26 13:05:37;;;;;;;;;;;;;;;4.57;100.00;101260.28;5068209;28;19928;-76
2022/12/26 13:08:07;;;;;;;;;;;;;;;4.58;100.00;101264.63;5068142;28;20346;-76
2022/12/26 13:10:33;;;;;;;;;;;;;;;4.60;100.00;101265.50;5067971;28;19928;-75
2022/12/26 13:13:00;;;;;;;;;;;;;;;4.62;100.00;101268.09;5067183;28;19939;-75
2022/12/26 13:15:30;;;;;;;;;;;;;;;4.65;100.00;101275.03;5085955;28;19960;-75
2022/12/26 13:18:13;;;;;;;;;;;;;;;4.67;100.00;101279.38;5063919;28;19977;-76
2022/12/26 13:20:57;;;;;;;;;;;;;;;4.64;100.00;101279.44;5068325;28;19928;-76
2022/12/26 13:26:13;;;;;;;;;;;;;;;4.64;100.00;101282.06;5070728;28;19927;-76
2022/12/26 13:28:43;;;;;;;;;;;;;;;4.65;100.00;101289.03;5086153;28;19924;-76
2022/12/26 13:31:08;;;;;;;;;;;;;;;4.66;100.00;101290.78;5068092;28;20108;-76
2022/12/26 13:33:33;;;;;;;;;;;;;;;4.68;100.00;101296.84;5067803;28;20005;-75
2022/12/26 13:36:03;;;;;;;;;;;;;;;4.66;100.00;101293.41;5067949;28;20608;-76
2022/12/26 13:39:04;;;;;;;;;;;;;;;4.66;100.00;101311.75;5067304;28;19936;-76
2022/12/26 13:44:17;;;;;;;;;;;;;;;4.66;100.00;101317.00;5063653;28;19928;-75
2022/12/26 13:46:45;;;;;;;;;;;;;;;4.67;100.00;101313.47;5051080;28;19974;-76
2022/12/26 13:49:26;;;;;;;;;;;;;;;4.67;100.00;101320.47;5085496;28;19931;-75
2022/12/26 13:51:52;;;;;;;;;;;;;;;4.66;100.00;101316.13;5085873;28;19928;-75
2022/12/26 13:54:18;;;;;;;;;;;;;;;4.62;100.00;101316.19;5067100;28;19948;-75
2022/12/26 13:56:44;;;;;;;;;;;;;;;4.60;100.00;101317.09;5067140;28;19923;-76
2022/12/26 13:59:12;;;;;;;;;;;;;;;4.57;100.00;101311.88;5067086;28;19928;-75
2022/12/26 14:01:42;;;;;;;;;;;;;;;4.56;100.00;101313.63;5067113;28;19928;-76
2022/12/26 14:04:23;;;;;;;;;;;;;;;4.56;100.00;101320.63;5067089;28;20066;-76
2022/12/26 14:06:48;;;;;;;;;;;;;;;4.53;100.00;101324.13;5073486;28;20401;-76
2022/12/26 14:09:26;;;;;;;;;;;;;;;4.52;100.00;101332.06;5085116;28;19928;-75
2022/12/26 14:12:07;;;;;;;;;;;;;;;4.49;100.00;101338.19;5067343;28;19928;-76
2022/12/26 14:14:38;;;;;;;;;;;;;;;4.48;100.00;101336.47;5079402;28;19924;-74
2022/12/26 14:17:07;;;;;;;;;;;;;;;4.47;100.00;101342.59;5065599;28;19984;-75
2022/12/26 14:19:51;;;;;;;;;;;;;;;4.44;100.00;101338.25;5070622;28;20404;-74
2022/12/26 14:22:35;;;;;;;;;;;;;;;4.42;100.00;101345.25;5083917;28;19928;-74
2022/12/26 14:25:12;;;;;;;;;;;;;;;4.39;100.00;101340.06;5084209;28;19928;-74
2022/12/26 14:27:50;;;;;;;;;;;;;;;4.40;100.00;101347.03;5083621;28;19931;-74
2022/12/26 14:30:24;;;;;;;;;;;;;;;4.37;100.00;101352.31;5065571;28;19924;-74
2022/12/26 14:32:52;;;;;;;;;;;;;;;4.32;100.00;101362.00;5065532;28;20004;-74
2022/12/26 14:35:27;;;;;;;;;;;;;;;4.27;100.00;101371.66;5084191;28;19923;-74
2022/12/26 14:37:55;;;;;;;;;;;;;;;4.21;100.00;101365.56;5084687;28;19977;-74
2022/12/26 14:40:24;;;;;;;;;;;;;;;4.16;100.00;101375.28;5083834;28;20306;-74
2022/12/26 14:43:12;;;;;;;;;;;;;;;4.13;100.00;101385.75;5067386;28;20035;-74
2022/12/26 14:45:42;;;;;;;;;;;;;;;4.08;100.00;101382.31;5072239;28;19923;-74
2022/12/26 14:48:14;;;;;;;;;;;;;;;4.06;100.00;101389.31;5037114;28;20595;-74
2022/12/26 14:50:39;;;;;;;;;;;;;;;4.03;100.00;101392.84;5070447;28;19935;-74
2022/12/26 14:53:23;;;;;;;;;;;;;;;3.98;100.00;101393.78;5083146;28;20313;-75
2022/12/26 14:55:51;;;;;;;;;;;;;;;3.93;100.00;101392.06;5083693;28;19924;-74
2022/12/26 14:58:26;;;;;;;;;;;;;;;3.89;100.00;101400.84;5072188;28;19924;-75